Terminal Aerodrome Forecast
Issued by NWS Blacksburg, VA

Home | Current Version | Previous Version | Text Only | Print | Product List | Glossary On
Versions: 1 2 3 4 5 6 7 8 9 10 11 12 13 14 15 16 17 18 19 20
000
FTUS41 KRNK 251127
TAFBLF
TAF
KBLF 251127Z 2512/2612 25007KT P6SM SKC
     FM251600 27009KT P6SM FEW040
     FM260000 27007KT P6SM SCT030 BKN250
     FM260600 29009KT P6SM BKN030=

USA.gov is the U.S. government's official web portal to all federal, state and local government web resources and services.